sensor_id;sensor_type;location;lat;lon;timestamp;pressure;altitude;pressure_sealevel;temperature;humidity
60061;BME280;45933;51.336;12.612;2023-04-07T00:00:47;100122.13;;;6.52;38.88
60061;BME280;45933;51.336;12.612;2023-04-07T00:03:12;100126.44;;;6.50;38.88
60061;BME280;45933;51.336;12.612;2023-04-07T00:05:38;100124.72;;;6.49;38.80
60061;BME280;45933;51.336;12.612;2023-04-07T00:08:03;100126.41;;;6.47;38.99
60061;BME280;45933;51.336;12.612;2023-04-07T00:10:28;100122.94;;;6.45;39.45
60061;BME280;45933;51.336;12.612;2023-04-07T00:12:54;100126.38;;;6.44;38.97
60061;BME280;45933;51.336;12.612;2023-04-07T00:15:19;100128.06;;;6.42;39.33
60061;BME280;45933;51.336;12.612;2023-04-07T00:17:45;100119.44;;;6.41;39.75
60061;BME280;45933;51.336;12.612;2023-04-07T00:20:10;100115.97;;;6.39;39.90
60061;BME280;45933;51.336;12.612;2023-04-07T00:22:36;100113.31;;;6.36;39.57
60061;BME280;45933;51.336;12.612;2023-04-07T00:25:01;100115.03;;;6.36;39.57
60061;BME280;45933;51.336;12.612;2023-04-07T00:27:27;100117.63;;;6.34;39.10
60061;BME280;45933;51.336;12.612;2023-04-07T00:29:52;100113.31;;;6.33;39.15
60061;BME280;45933;51.336;12.612;2023-04-07T00:32:20;100109.81;;;6.31;39.38
60061;BME280;45933;51.336;12.612;2023-04-07T00:34:45;100107.22;;;6.29;38.75
60061;BME280;45933;51.336;12.612;2023-04-07T00:37:10;100111.50;;;6.27;39.57
60061;BME280;45933;51.336;12.612;2023-04-07T00:39:35;100111.47;;;6.24;39.61
60061;BME280;45933;51.336;12.612;2023-04-07T00:42:02;100108.81;;;6.21;39.72
60061;BME280;45933;51.336;12.612;2023-04-07T00:44:27;100106.22;;;6.20;39.70
60061;BME280;45933;51.336;12.612;2023-04-07T00:46:53;100107.94;;;6.18;39.41
60061;BME280;45933;51.336;12.612;2023-04-07T00:49:18;100103.56;;;6.15;39.94
60061;BME280;45933;51.336;12.612;2023-04-07T00:51:44;100100.09;;;6.13;39.63
60061;BME280;45933;51.336;12.612;2023-04-07T00:54:10;100103.56;;;6.12;40.02
60061;BME280;45933;51.336;12.612;2023-04-07T00:56:35;100097.47;;;6.10;39.91
60061;BME280;45933;51.336;12.612;2023-04-07T00:59:03;100093.19;;;6.12;39.99
60061;BME280;45933;51.336;12.612;2023-04-07T01:01:34;100089.72;;;6.10;39.77
60061;BME280;45933;51.336;12.612;2023-04-07T01:04:04;100099.19;;;6.10;39.61
60061;BME280;45933;51.336;12.612;2023-04-07T01:06:35;100087.09;;;6.07;39.88
60061;BME280;45933;51.336;12.612;2023-04-07T01:09:24;100091.44;;;6.11;39.33
60061;BME280;45933;51.336;12.612;2023-04-07T01:14:50;100084.44;;;6.02;39.98
60061;BME280;45933;51.336;12.612;2023-04-07T01:17:16;100081.78;;;5.96;40.13
60061;BME280;45933;51.336;12.612;2023-04-07T01:19:47;100082.59;;;5.95;40.20
60061;BME280;45933;51.336;12.612;2023-04-07T01:22:27;100076.56;;;5.93;39.79
60061;BME280;45933;51.336;12.612;2023-04-07T01:25:10;100076.47;;;5.90;40.09
60061;BME280;45933;51.336;12.612;2023-04-07T01:27:53;100072.94;;;5.85;40.50
60061;BME280;45933;51.336;12.612;2023-04-07T01:30:22;100071.13;;;5.76;41.41
60061;BME280;45933;51.336;12.612;2023-04-07T01:32:50;100074.53;;;5.72;41.54
60061;BME280;45933;51.336;12.612;2023-04-07T01:35:17;100068.44;;;5.69;41.33
60061;BME280;45933;51.336;12.612;2023-04-07T01:37:44;100064.09;;;5.65;40.94
60061;BME280;45933;51.336;12.612;2023-04-07T01:40:13;100065.75;;;5.63;40.83
60061;BME280;45933;51.336;12.612;2023-04-07T01:42:40;100060.56;;;5.60;41.41
60061;BME280;45933;51.336;12.612;2023-04-07T01:45:07;100063.94;;;5.56;41.02
60061;BME280;45933;51.336;12.612;2023-04-07T01:47:33;100068.22;;;5.54;41.11
60061;BME280;45933;51.336;12.612;2023-04-07T01:50:02;100058.69;;;5.51;41.33
60061;BME280;45933;51.336;12.612;2023-04-07T01:52:34;100063.03;;;5.54;41.35
60061;BME280;45933;51.336;12.612;2023-04-07T01:55:00;100055.19;;;5.47;40.87
60061;BME280;45933;51.336;12.612;2023-04-07T01:57:25;100058.63;;;5.46;40.80
60061;BME280;45933;51.336;12.612;2023-04-07T01:59:52;100054.31;;;5.45;40.96
60061;BME280;45933;51.336;12.612;2023-04-07T02:02:17;100053.44;;;5.43;41.04
60061;BME280;45933;51.336;12.612;2023-04-07T02:04:48;100049.94;;;5.43;40.91
60061;BME280;45933;51.336;12.612;2023-04-07T02:07:29;100047.47;;;5.49;40.49
60061;BME280;45933;51.336;12.612;2023-04-07T02:09:57;100053.44;;;5.43;40.84
60061;BME280;45933;51.336;12.612;2023-04-07T02:12:26;100047.34;;;5.41;41.17
60061;BME280;45933;51.336;12.612;2023-04-07T02:14:53;100053.38;;;5.39;41.01
60061;BME280;45933;51.336;12.612;2023-04-07T02:17:20;100051.59;;;5.38;41.30
60061;BME280;45933;51.336;12.612;2023-04-07T02:19:47;100049.06;;;5.39;41.02
60061;BME280;45933;51.336;12.612;2023-04-07T02:22:14;100045.56;;;5.37;40.94
60061;BME280;45933;51.336;12.612;2023-04-07T02:24:41;100044.69;;;5.37;41.05
60061;BME280;45933;51.336;12.612;2023-04-07T02:27:06;100045.56;;;5.37;40.78
60061;BME280;45933;51.336;12.612;2023-04-07T02:29:32;100049.00;;;5.36;40.99
60061;BME280;45933;51.336;12.612;2023-04-07T02:31:57;100049.88;;;5.37;41.32
60061;BME280;45933;51.336;12.612;2023-04-07T02:34:22;100044.69;;;5.35;41.39
60061;BME280;45933;51.336;12.612;2023-04-07T02:36:47;100049.84;;;5.35;41.10
60061;BME280;45933;51.336;12.612;2023-04-07T02:39:13;100053.31;;;5.36;41.61
60061;BME280;45933;51.336;12.612;2023-04-07T02:41:38;100047.28;;;5.35;41.33
60061;BME280;45933;51.336;12.612;2023-04-07T02:44:03;100054.16;;;5.33;41.63
60061;BME280;45933;51.336;12.612;2023-04-07T02:46:29;100048.13;;;5.33;41.59
60061;BME280;45933;51.336;12.612;2023-04-07T02:48:54;100045.53;;;5.33;41.97
60061;BME280;45933;51.336;12.612;2023-04-07T02:51:19;100047.22;;;5.32;41.56
60061;BME280;45933;51.336;12.612;2023-04-07T02:53:45;100049.78;;;5.32;41.76
60061;BME280;45933;51.336;12.612;2023-04-07T02:56:10;100044.63;;;5.32;41.76
60061;BME280;45933;51.336;12.612;2023-04-07T02:58:35;100037.72;;;5.31;41.95
60061;BME280;45933;51.336;12.612;2023-04-07T03:01:00;100039.47;;;5.32;41.98
60061;BME280;45933;51.336;12.612;2023-04-07T03:03:26;100034.28;;;5.32;41.81
60061;BME280;45933;51.336;12.612;2023-04-07T03:05:51;100037.78;;;5.33;41.47
60061;BME280;45933;51.336;12.612;2023-04-07T03:08:16;100032.59;;;5.33;41.31
60061;BME280;45933;51.336;12.612;2023-04-07T03:10:42;100036.84;;;5.29;41.67
60061;BME280;45933;51.336;12.612;2023-04-07T03:13:08;100036.84;;;5.31;42.28
60061;BME280;45933;51.336;12.612;2023-04-07T03:15:33;100031.69;;;5.31;42.33
60061;BME280;45933;51.336;12.612;2023-04-07T03:17:59;100033.41;;;5.29;41.92
60061;BME280;45933;51.336;12.612;2023-04-07T03:20:24;100039.41;;;5.28;41.97
60061;BME280;45933;51.336;12.612;2023-04-07T03:22:49;100040.22;;;5.23;42.30
60061;BME280;45933;51.336;12.612;2023-04-07T03:25:15;100038.44;;;5.21;42.45
60061;BME280;45933;51.336;12.612;2023-04-07T03:27:40;100035.84;;;5.19;42.59
60061;BME280;45933;51.336;12.612;2023-04-07T03:30:06;100032.31;;;5.16;42.14
60061;BME280;45933;51.336;12.612;2023-04-07T03:32:31;100030.50;;;5.09;42.17
60061;BME280;45933;51.336;12.612;2023-04-07T03:34:56;100037.38;;;5.07;42.28
60061;BME280;45933;51.336;12.612;2023-04-07T03:37:22;100033.84;;;5.03;42.15
60061;BME280;45933;51.336;12.612;2023-04-07T03:39:47;100038.09;;;4.99;42.61
60061;BME280;45933;51.336;12.612;2023-04-07T03:42:12;100038.00;;;4.95;42.57
60061;BME280;45933;51.336;12.612;2023-04-07T03:44:37;100039.66;;;4.90;42.32
60061;BME280;45933;51.336;12.612;2023-04-07T03:47:03;100036.13;;;4.85;42.51
60061;BME280;45933;51.336;12.612;2023-04-07T03:49:28;100033.50;;;4.82;42.81
60061;BME280;45933;51.336;12.612;2023-04-07T03:51:55;100032.56;;;4.77;43.19
60061;BME280;45933;51.336;12.612;2023-04-07T03:54:20;100027.34;;;4.73;43.24
60061;BME280;45933;51.336;12.612;2023-04-07T03:56:45;100033.25;;;4.68;43.67
60061;BME280;45933;51.336;12.612;2023-04-07T03:59:11;100039.19;;;4.62;43.79
60061;BME280;45933;51.336;12.612;2023-04-07T04:01:36;100027.06;;;4.58;43.84
60061;BME280;45933;51.336;12.612;2023-04-07T04:04:01;100033.84;;;4.53;43.68
60061;BME280;45933;51.336;12.612;2023-04-07T04:06:27;100035.53;;;4.50;43.23
60061;BME280;45933;51.336;12.612;2023-04-07T04:08:52;100039.75;;;4.44;43.38
60061;BME280;45933;51.336;12.612;2023-04-07T04:11:17;100038.81;;;4.41;43.38
60061;BME280;45933;51.336;12.612;2023-04-07T04:13:42;100039.63;;;4.38;43.39
60061;BME280;45933;51.336;12.612;2023-04-07T04:16:08;100035.25;;;4.36;43.50
60061;BME280;45933;51.336;12.612;2023-04-07T04:18:33;100036.13;;;4.35;43.66
60061;BME280;45933;51.336;12.612;2023-04-07T04:20:59;100037.81;;;4.33;43.38
60061;BME280;45933;51.336;12.612;2023-04-07T04:23:24;100038.63;;;4.32;43.49
60061;BME280;45933;51.336;12.612;2023-04-07T04:25:49;100035.22;;;4.33;43.39
60061;BME280;45933;51.336;12.612;2023-04-07T04:28:14;100039.50;;;4.32;43.42
60061;BME280;45933;51.336;12.612;2023-04-07T04:30:40;100037.72;;;4.28;43.41
60061;BME280;45933;51.336;12.612;2023-04-07T04:33:05;100039.44;;;4.29;43.90
60061;BME280;45933;51.336;12.612;2023-04-07T04:35:31;100031.63;;;4.26;43.64
60061;BME280;45933;51.336;12.612;2023-04-07T04:37:56;100041.97;;;4.26;43.57
60061;BME280;45933;51.336;12.612;2023-04-07T04:40:21;100038.50;;;4.24;44.40
60061;BME280;45933;51.336;12.612;2023-04-07T04:42:47;100035.03;;;4.22;44.04
60061;BME280;45933;51.336;12.612;2023-04-07T04:45:12;100038.41;;;4.21;44.30
60061;BME280;45933;51.336;12.612;2023-04-07T04:47:37;100039.28;;;4.20;43.98
60061;BME280;45933;51.336;12.612;2023-04-07T04:50:04;100043.50;;;4.16;44.85
60061;BME280;45933;51.336;12.612;2023-04-07T04:52:29;100040.03;;;4.14;44.52
60061;BME280;45933;51.336;12.612;2023-04-07T04:54:55;100040.88;;;4.15;44.88
60061;BME280;45933;51.336;12.612;2023-04-07T04:57:20;100042.59;;;4.13;44.70
60061;BME280;45933;51.336;12.612;2023-04-07T04:59:46;100050.31;;;4.11;44.78
60061;BME280;45933;51.336;12.612;2023-04-07T05:02:11;100042.50;;;4.10;45.30
60061;BME280;45933;51.336;12.612;2023-04-07T05:04:36;100050.22;;;4.08;45.29
60061;BME280;45933;51.336;12.612;2023-04-07T05:07:02;100040.69;;;4.06;45.42
60061;BME280;45933;51.336;12.612;2023-04-07T05:09:28;100041.59;;;4.06;45.40
60061;BME280;45933;51.336;12.612;2023-04-07T05:11:53;100043.25;;;4.04;45.62
60061;BME280;45933;51.336;12.612;2023-04-07T05:14:18;100042.41;;;4.05;45.47
60061;BME280;45933;51.336;12.612;2023-04-07T05:16:43;100039.81;;;4.04;45.50
60061;BME280;45933;51.336;12.612;2023-04-07T05:19:09;100043.25;;;4.04;45.44
60061;BME280;45933;51.336;12.612;2023-04-07T05:21:34;100041.59;;;4.06;45.67
60061;BME280;45933;51.336;12.612;2023-04-07T05:23:59;100042.50;;;4.08;46.16
60061;BME280;45933;51.336;12.612;2023-04-07T05:26:25;100045.09;;;4.10;45.82
60061;BME280;45933;51.336;12.612;2023-04-07T05:28:51;100046.00;;;4.12;46.78
60061;BME280;45933;51.336;12.612;2023-04-07T05:31:16;100044.34;;;4.15;46.12
60061;BME280;45933;51.336;12.612;2023-04-07T05:33:41;100053.84;;;4.18;46.78
60061;BME280;45933;51.336;12.612;2023-04-07T05:36:07;100056.47;;;4.21;46.64
60061;BME280;45933;51.336;12.612;2023-04-07T05:38:32;100048.78;;;4.23;46.66
60061;BME280;45933;51.336;12.612;2023-04-07T05:40:57;100054.84;;;4.25;46.06
60061;BME280;45933;51.336;12.612;2023-04-07T05:43:23;100055.78;;;4.28;45.91
60061;BME280;45933;51.336;12.612;2023-04-07T05:45:48;100058.38;;;4.30;45.94
60061;BME280;45933;51.336;12.612;2023-04-07T05:48:13;100053.28;;;4.33;45.75
60061;BME280;45933;51.336;12.612;2023-04-07T05:50:38;100051.59;;;4.33;46.09
60061;BME280;45933;51.336;12.612;2023-04-07T05:53:04;100053.31;;;4.34;45.82
60061;BME280;45933;51.336;12.612;2023-04-07T05:55:29;100052.47;;;4.35;45.80
60061;BME280;45933;51.336;12.612;2023-04-07T05:57:55;100055.03;;;4.35;45.84
60061;BME280;45933;51.336;12.612;2023-04-07T06:00:20;100059.41;;;4.38;45.81
60061;BME280;45933;51.336;12.612;2023-04-07T06:02:45;100057.69;;;4.38;46.08
60061;BME280;45933;51.336;12.612;2023-04-07T06:05:11;100050.75;;;4.36;46.71
60061;BME280;45933;51.336;12.612;2023-04-07T06:07:36;100060.31;;;4.40;46.35
60061;BME280;45933;51.336;12.612;2023-04-07T06:10:02;100062.00;;;4.39;46.37
60061;BME280;45933;51.336;12.612;2023-04-07T06:12:27;100067.22;;;4.42;46.86
60061;BME280;45933;51.336;12.612;2023-04-07T06:14:54;100062.94;;;4.43;46.54
60061;BME280;45933;51.336;12.612;2023-04-07T06:17:20;100060.38;;;4.44;46.57
60061;BME280;45933;51.336;12.612;2023-04-07T06:19:45;100061.25;;;4.45;46.68
60061;BME280;45933;51.336;12.612;2023-04-07T06:22:11;100060.47;;;4.49;47.06
60061;BME280;45933;51.336;12.612;2023-04-07T06:24:36;100063.09;;;4.52;46.64
60061;BME280;45933;51.336;12.612;2023-04-07T06:27:02;100071.78;;;4.56;46.95
60061;BME280;45933;51.336;12.612;2023-04-07T06:29:28;100066.72;;;4.62;46.44
60061;BME280;45933;51.336;12.612;2023-04-07T06:31:53;100064.25;;;4.68;46.73
60061;BME280;45933;51.336;12.612;2023-04-07T06:34:19;100060.09;;;4.75;47.03
60061;BME280;45933;51.336;12.612;2023-04-07T06:36:44;100068.84;;;4.84;46.43
60061;BME280;45933;51.336;12.612;2023-04-07T06:39:09;100066.41;;;4.92;45.90
60061;BME280;45933;51.336;12.612;2023-04-07T06:41:35;100063.94;;;4.99;46.64
60061;BME280;45933;51.336;12.612;2023-04-07T06:44:01;100062.38;;;5.11;46.80
60061;BME280;45933;51.336;12.612;2023-04-07T06:46:26;100055.66;;;5.20;46.45
60061;BME280;45933;51.336;12.612;2023-04-07T06:48:51;100053.22;;;5.30;45.94
60061;BME280;45933;51.336;12.612;2023-04-07T06:51:16;100059.44;;;5.42;45.66
60061;BME280;45933;51.336;12.612;2023-04-07T06:53:42;100058.72;;;5.53;45.71
60061;BME280;45933;51.336;12.612;2023-04-07T06:56:11;100060.66;;;5.66;45.58
60061;BME280;45933;51.336;12.612;2023-04-07T06:58:37;100054.75;;;5.76;45.45
60061;BME280;45933;51.336;12.612;2023-04-07T07:01:03;100055.75;;;5.87;45.74
60061;BME280;45933;51.336;12.612;2023-04-07T07:03:29;100054.19;;;5.98;45.51
60061;BME280;45933;51.336;12.612;2023-04-07T07:05:56;100050.03;;;6.11;45.71
60061;BME280;45933;51.336;12.612;2023-04-07T07:08:22;100057.09;;;6.23;45.68
60061;BME280;45933;51.336;12.612;2023-04-07T07:10:47;100053.78;;;6.36;45.43
60061;BME280;45933;51.336;12.612;2023-04-07T07:13:13;100052.22;;;6.50;44.79
60061;BME280;45933;51.336;12.612;2023-04-07T07:15:38;100057.50;;;6.64;44.61
60061;BME280;45933;51.336;12.612;2023-04-07T07:18:03;100051.59;;;6.77;45.00
60061;BME280;45933;51.336;12.612;2023-04-07T07:20:29;100049.16;;;6.94;44.53
60061;BME280;45933;51.336;12.612;2023-04-07T07:22:54;100051.88;;;7.10;44.71
60061;BME280;45933;51.336;12.612;2023-04-07T07:25:20;100062.38;;;7.25;43.77
60061;BME280;45933;51.336;12.612;2023-04-07T07:27:45;100059.88;;;7.40;44.04
60061;BME280;45933;51.336;12.612;2023-04-07T07:30:11;100063.47;;;7.59;44.90
60061;BME280;45933;51.336;12.612;2023-04-07T07:32:36;100059.22;;;7.73;43.21
60061;BME280;45933;51.336;12.612;2023-04-07T07:35:02;100060.19;;;7.86;42.52
60061;BME280;45933;51.336;12.612;2023-04-07T07:37:27;100059.38;;;8.02;42.97
60061;BME280;45933;51.336;12.612;2023-04-07T07:39:52;100068.09;;;8.18;43.20
60061;BME280;45933;51.336;12.612;2023-04-07T07:42:18;100073.34;;;8.30;41.90
60061;BME280;45933;51.336;12.612;2023-04-07T07:44:43;100076.03;;;8.44;42.44
60061;BME280;45933;51.336;12.612;2023-04-07T07:47:08;100073.47;;;8.59;42.96
60061;BME280;45933;51.336;12.612;2023-04-07T07:49:34;100078.66;;;8.73;42.64
60061;BME280;45933;51.336;12.612;2023-04-07T07:51:59;100078.69;;;8.88;42.13
60061;BME280;45933;51.336;12.612;2023-04-07T07:54:24;100083.91;;;9.04;41.91
60061;BME280;45933;51.336;12.612;2023-04-07T07:56:50;100074.38;;;9.23;42.52
60061;BME280;45933;51.336;12.612;2023-04-07T07:59:16;100070.03;;;9.41;41.17
60061;BME280;45933;51.336;12.612;2023-04-07T08:01:42;100076.09;;;9.60;40.96
60061;BME280;45933;51.336;12.612;2023-04-07T08:04:07;100069.97;;;9.78;40.64
60061;BME280;45933;51.336;12.612;2023-04-07T08:06:33;100071.66;;;9.98;40.38
60061;BME280;45933;51.336;12.612;2023-04-07T08:08:58;100069.81;;;10.16;40.10
60061;BME280;45933;51.336;12.612;2023-04-07T08:11:23;100079.34;;;10.34;39.27
60061;BME280;45933;51.336;12.612;2023-04-07T08:13:49;100077.50;;;10.53;39.12
60061;BME280;45933;51.336;12.612;2023-04-07T08:16:15;100083.47;;;10.73;39.29
60061;BME280;45933;51.336;12.612;2023-04-07T08:18:41;100082.47;;;10.90;38.48
60061;BME280;45933;51.336;12.612;2023-04-07T08:21:06;100081.47;;;11.11;38.41
60061;BME280;45933;51.336;12.612;2023-04-07T08:23:31;100083.06;;;11.29;38.56
60061;BME280;45933;51.336;12.612;2023-04-07T08:25:57;100086.38;;;11.47;37.79
60061;BME280;45933;51.336;12.612;2023-04-07T08:28:25;100086.22;;;11.64;36.38
60061;BME280;45933;51.336;12.612;2023-04-07T08:30:50;100082.59;;;11.77;36.16
60061;BME280;45933;51.336;12.612;2023-04-07T08:33:15;100080.81;;;11.87;34.80
60061;BME280;45933;51.336;12.612;2023-04-07T08:35:41;100084.06;;;12.06;36.32
60061;BME280;45933;51.336;12.612;2023-04-07T08:38:06;100081.28;;;12.20;35.99
60061;BME280;45933;51.336;12.612;2023-04-07T08:40:33;100084.53;;;12.37;35.62
60061;BME280;45933;51.336;12.612;2023-04-07T08:43:00;100086.91;;;12.57;35.21
60061;BME280;45933;51.336;12.612;2023-04-07T08:45:27;100078.78;;;12.77;35.58
60061;BME280;45933;51.336;12.612;2023-04-07T08:47:54;100081.97;;;12.96;33.19
60061;BME280;45933;51.336;12.612;2023-04-07T08:50:25;100071.94;;;13.25;33.89
60061;BME280;45933;51.336;12.612;2023-04-07T08:52:54;100073.38;;;13.43;32.74
60061;BME280;45933;51.336;12.612;2023-04-07T08:55:21;100078.91;;;13.76;33.71
60061;BME280;45933;51.336;12.612;2023-04-07T08:57:46;100070.34;;;14.11;32.62
60061;BME280;45933;51.336;12.612;2023-04-07T09:00:12;100072.41;;;14.38;30.65
60061;BME280;45933;51.336;12.612;2023-04-07T09:02:42;100078.44;;;14.84;30.78
60061;BME280;45933;51.336;12.612;2023-04-07T09:05:09;100080.25;;;15.17;30.79
60061;BME280;45933;51.336;12.612;2023-04-07T09:07:37;100077.53;;;15.56;30.17
60061;BME280;45933;51.336;12.612;2023-04-07T09:10:03;100083.84;;;15.83;28.21
60061;BME280;45933;51.336;12.612;2023-04-07T09:12:29;100072.88;;;16.00;27.54
60061;BME280;45933;51.336;12.612;2023-04-07T09:14:55;100074.94;;;16.20;27.97
60061;BME280;45933;51.336;12.612;2023-04-07T09:17:21;100073.13;;;16.22;27.26
60061;BME280;45933;51.336;12.612;2023-04-07T09:19:47;100071.44;;;16.19;26.88
60061;BME280;45933;51.336;12.612;2023-04-07T09:22:13;100076.59;;;16.24;28.01
60061;BME280;45933;51.336;12.612;2023-04-07T09:24:39;100072.50;;;16.14;27.24
60061;BME280;45933;51.336;12.612;2023-04-07T09:27:17;100080.06;;;16.25;27.98
60061;BME280;45933;51.336;12.612;2023-04-07T09:29:45;100074.41;;;16.07;26.33
60061;BME280;45933;51.336;12.612;2023-04-07T09:32:10;100072.78;;;16.03;26.30
60061;BME280;45933;51.336;12.612;2023-04-07T09:34:39;100070.13;;;16.05;26.38
60061;BME280;45933;51.336;12.612;2023-04-07T09:37:05;100069.44;;;15.98;26.65
60061;BME280;45933;51.336;12.612;2023-04-07T09:39:31;100065.03;;;15.99;27.61
60061;BME280;45933;51.336;12.612;2023-04-07T09:41:57;100062.47;;;15.95;27.59
60061;BME280;45933;51.336;12.612;2023-04-07T09:44:23;100060.72;;;15.96;28.72
60061;BME280;45933;51.336;12.612;2023-04-07T09:46:50;100059.97;;;15.91;28.05
60061;BME280;45933;51.336;12.612;2023-04-07T09:49:16;100060.03;;;15.89;27.24
60061;BME280;45933;51.336;12.612;2023-04-07T09:52:11;100054.41;;;16.03;28.66
60061;BME280;45933;51.336;12.612;2023-04-07T09:54:40;100051.16;;;15.93;28.08
60061;BME280;45933;51.336;12.612;2023-04-07T09:57:10;100057.41;;;15.89;28.43
60061;BME280;45933;51.336;12.612;2023-04-07T09:59:38;100052.22;;;15.86;26.72
60061;BME280;45933;51.336;12.612;2023-04-07T10:02:04;100057.69;;;15.79;26.60
60061;BME280;45933;51.336;12.612;2023-04-07T10:04:30;100048.84;;;15.81;26.40
60061;BME280;45933;51.336;12.612;2023-04-07T10:06:56;100048.94;;;15.78;26.99
60061;BME280;45933;51.336;12.612;2023-04-07T10:09:23;100051.44;;;15.83;27.20
60061;BME280;45933;51.336;12.612;2023-04-07T10:11:50;100057.34;;;15.91;27.65
60061;BME280;45933;51.336;12.612;2023-04-07T10:14:17;100049.25;;;15.99;27.04
60061;BME280;45933;51.336;12.612;2023-04-07T10:16:43;100050.66;;;16.10;27.62
60061;BME280;45933;51.336;12.612;2023-04-07T10:19:09;100058.44;;;16.15;27.91
60061;BME280;45933;51.336;12.612;2023-04-07T10:21:38;100050.19;;;16.27;26.52
60061;BME280;45933;51.336;12.612;2023-04-07T10:24:14;100058.34;;;16.47;26.34
60061;BME280;45933;51.336;12.612;2023-04-07T10:26:52;100055.19;;;16.64;26.71
60061;BME280;45933;51.336;12.612;2023-04-07T10:29:19;100057.44;;;16.78;26.67
60061;BME280;45933;51.336;12.612;2023-04-07T10:31:46;100053.34;;;16.96;26.29
60061;BME280;45933;51.336;12.612;2023-04-07T10:34:11;100048.56;;;17.09;26.91
60061;BME280;45933;51.336;12.612;2023-04-07T10:37:06;100048.56;;;17.35;26.81
60061;BME280;45933;51.336;12.612;2023-04-07T10:39:32;100047.16;;;17.50;27.02
60061;BME280;45933;51.336;12.612;2023-04-07T10:41:59;100051.72;;;17.70;27.22
60061;BME280;45933;51.336;12.612;2023-04-07T10:47:04;100041.66;;;18.06;26.23
60061;BME280;45933;51.336;12.612;2023-04-07T10:49:31;100041.88;;;18.23;25.34
60061;BME280;45933;51.336;12.612;2023-04-07T10:54:36;100039.63;;;18.60;25.49
60061;BME280;45933;51.336;12.612;2023-04-07T10:59:33;100044.56;;;18.91;24.64
60061;BME280;45933;51.336;12.612;2023-04-07T11:04:37;100039.72;;;19.02;25.33
60061;BME280;45933;51.336;12.612;2023-04-07T11:07:03;100039.16;;;19.16;24.99
60061;BME280;45933;51.336;12.612;2023-04-07T11:09:28;100033.53;;;19.23;24.03
60061;BME280;45933;51.336;12.612;2023-04-07T11:11:53;100041.19;;;19.29;24.90
60061;BME280;45933;51.336;12.612;2023-04-07T11:14:30;100034.09;;;19.31;24.64
60061;BME280;45933;51.336;12.612;2023-04-07T11:16:56;100034.75;;;19.37;24.39
60061;BME280;45933;51.336;12.612;2023-04-07T11:19:22;100033.75;;;19.39;23.38
60061;BME280;45933;51.336;12.612;2023-04-07T11:21:48;100031.28;;;19.34;23.00
60061;BME280;45933;51.336;12.612;2023-04-07T11:24:32;100032.59;;;19.46;24.93
60061;BME280;45933;51.336;12.612;2023-04-07T11:26:58;100034.78;;;19.35;24.63
60061;BME280;45933;51.336;12.612;2023-04-07T11:29:27;100035.00;;;19.30;23.74
60061;BME280;45933;51.336;12.612;2023-04-07T11:31:54;100032.59;;;19.24;24.31
60061;BME280;45933;51.336;12.612;2023-04-07T11:34:21;100039.88;;;19.19;24.84
60061;BME280;45933;51.336;12.612;2023-04-07T11:36:47;100033.19;;;19.11;24.25
60061;BME280;45933;51.336;12.612;2023-04-07T11:39:19;100042.09;;;19.08;24.52
60061;BME280;45933;51.336;12.612;2023-04-07T11:41:46;100039.22;;;18.92;24.40
60061;BME280;45933;51.336;12.612;2023-04-07T11:44:12;100036.22;;;18.79;24.26
60061;BME280;45933;51.336;12.612;2023-04-07T11:46:58;100033.53;;;18.81;24.84
60061;BME280;45933;51.336;12.612;2023-04-07T11:49:25;100039.22;;;18.70;23.74
60061;BME280;45933;51.336;12.612;2023-04-07T11:52:04;100039.72;;;18.80;25.16
60061;BME280;45933;51.336;12.612;2023-04-07T11:54:41;100040.66;;;18.79;24.97
60061;BME280;45933;51.336;12.612;2023-04-07T11:57:07;100032.06;;;18.74;24.38
60061;BME280;45933;51.336;12.612;2023-04-07T11:59:34;100035.47;;;18.76;24.58
60061;BME280;45933;51.336;12.612;2023-04-07T12:02:00;100034.44;;;18.80;24.42
60061;BME280;45933;51.336;12.612;2023-04-07T12:04:25;100033.41;;;18.84;24.21
60061;BME280;45933;51.336;12.612;2023-04-07T12:06:51;100034.59;;;18.97;24.58
60061;BME280;45933;51.336;12.612;2023-04-07T12:09:28;100037.56;;;19.12;23.95
60061;BME280;45933;51.336;12.612;2023-04-07T12:11:55;100039.94;;;19.18;24.42
60061;BME280;45933;51.336;12.612;2023-04-07T12:14:21;100034.34;;;19.25;23.73
60061;BME280;45933;51.336;12.612;2023-04-07T12:16:47;100033.09;;;19.34;23.87
60061;BME280;45933;51.336;12.612;2023-04-07T12:19:12;100036.59;;;19.34;23.53
60061;BME280;45933;51.336;12.612;2023-04-07T12:21:38;100041.63;;;19.41;24.26
60061;BME280;45933;51.336;12.612;2023-04-07T12:24:03;100035.34;;;19.43;23.33
60061;BME280;45933;51.336;12.612;2023-04-07T12:26:28;100039.97;;;19.38;22.95
60061;BME280;45933;51.336;12.612;2023-04-07T12:28:53;100036.53;;;19.36;22.58
60061;BME280;45933;51.336;12.612;2023-04-07T12:31:19;100028.34;;;19.42;23.85
60061;BME280;45933;51.336;12.612;2023-04-07T12:33:44;100027.53;;;19.40;23.10
60061;BME280;45933;51.336;12.612;2023-04-07T12:36:10;100030.25;;;19.39;23.64
60061;BME280;45933;51.336;12.612;2023-04-07T12:38:36;100035.72;;;19.34;23.68
60061;BME280;45933;51.336;12.612;2023-04-07T12:41:01;100034.94;;;19.32;23.42
60061;BME280;45933;51.336;12.612;2023-04-07T12:43:30;100032.50;;;19.27;23.39
60061;BME280;45933;51.336;12.612;2023-04-07T12:45:55;100035.13;;;19.27;23.63
60061;BME280;45933;51.336;12.612;2023-04-07T12:48:21;100022.50;;;19.34;23.44
60061;BME280;45933;51.336;12.612;2023-04-07T12:50:47;100027.34;;;19.45;23.29
60061;BME280;45933;51.336;12.612;2023-04-07T12:53:13;100030.53;;;19.53;24.31
60061;BME280;45933;51.336;12.612;2023-04-07T12:55:38;100034.69;;;19.58;23.63